United States > Florida

Carrabelle, FL

5:56 AM EDT on July 07, 2015 (GMT -0400)
FSU Coastal and Marine Lab | | Change Station
CLOSE
Current Station
Personal Weather Station
Location: Panacea, FL
Elevation: 22 ft
Nearby Weather Stations

Elev 22 ft 29.92 °N, 84.51 °W | Updated 7 minutes ago

Clear
Clear
73.4 °F
Feels Like 70 °F
N
2.0
Wind Variable Wind from North
Gusts 3.0 mph

Today
High -- | Low -- °F
--% Chance of Precip.
Yesterday
High -- | Low -- °F
Precip. -- in
6:43 AM 8:43 PM
Waning Gibbous, 66% visible
Pressure 30.14 in
Visibility 10.0 miles
Clouds Clear
Heat Index 70 °F
Dew Point 72 °F
Humidity 94%
Rainfall 0.00 in
Snow Depth Not available.
UV 0.0 out of 12
Pollen 2.90 out of 12
Air Quality Not available.
Flu Activity Not available.
METAR KAAF 070953Z AUTO 00000KT 10SM CLR 25/22 A3013 RMK AO2 SLP204 T02500217 $

More Conditions Fewer Conditions

Pressure 30.14 in
Visibility 10.0 miles
Clouds Clear
Heat Index 70 °F
Dew Point 72 °F
Humidity 94%
Rainfall 0.00 in
Snow Depth Not available.
UV 0.0 out of 12
Pollen 2.90 out of 12
Air Quality Not available.
Flu Activity Not available.
METAR KAAF 070953Z AUTO 00000KT 10SM CLR 25/22 A3013 RMK AO2 SLP204 T02500217 $

More Conditions Fewer Conditions

10-Day Weather Forecast

×

Almanac

Astronomy

Jul. 07, 2015 Rise Set
Actual Time
Civil Twilight
Nautical Twilight
Astronomical Twilight
Moon
Length of Visible Light
Length of Day
Tomorrow will be .
, % of the Moon is Illuminated

Today's Extremes

State Highs State Lows

Community

WunderPhotos

Upload Photos

1,835,758 photos uploaded!

WunderBlogs® & News

Nearby

Air Quality

  Air Quality AQ Index Pollutant
Not available.

Snow Depth

Station Depth Elevation

Earthquake Activity

City Distance Mag. Time & Date
Minimum magnitude displayed is 2.5.

Coastal Water Temperatures

Place Temperature

Stations

Nearby Weather Stations

Station Location Temp. Windchill Dew Point Humidity Wind Precip. Elev Updated Type